Time;durP1;ratioP1;P1;durP2;ratioP2;P2;SDS_P1;SDS_P2;PMS_P1;PMS_P2;Temp;Humidity;BMP_temperature;BMP_pressure;BME280_temperature;BME280_humidity;BME280_pressure;Samples;Min_cycle;Max_cycle;Signal;HPM_P1;HPM_P2
2021/12/11 00:00:34;;;;;;;24.38;18.55;;;-1.60;99.90;;;;;;5069550;28;20101;-89
2021/12/11 00:03:07;;;;;;;25.90;17.42;;;-1.60;99.90;;;;;;5067156;28;20041;-87
2021/12/11 00:05:34;;;;;;;30.95;17.58;;;-1.40;99.90;;;;;;5069511;28;20040;-88
2021/12/11 00:08:00;;;;;;;29.00;19.88;;;-1.50;99.90;;;;;;5074756;28;20075;-88
2021/12/11 00:10:48;;;;;;;37.03;22.60;;;-1.30;99.90;;;;;;5093173;28;20043;-88
2021/12/11 00:13:20;;;;;;;34.63;22.08;;;-1.30;99.90;;;;;;5087851;28;20056;-80
2021/12/11 00:15:47;;;;;;;37.83;22.73;;;-1.30;99.90;;;;;;5085929;28;20036;-88
2021/12/11 00:18:18;;;;;;;36.45;23.02;;;-1.20;99.90;;;;;;5095559;28;20119;-74
2021/12/11 00:21:09;;;;;;;36.97;24.98;;;-1.10;99.90;;;;;;5090617;28;20044;-88
2021/12/11 00:23:36;;;;;;;40.15;25.38;;;-1.10;99.90;;;;;;5072087;28;20421;-88
2021/12/11 00:26:05;;;;;;;45.20;29.33;;;-1.20;99.90;;;;;;5086598;28;20623;-86
2021/12/11 00:28:30;;;;;;;46.92;28.65;;;-1.30;99.90;;;;;;5068183;28;20068;-88
2021/12/11 00:30:57;;;;;;;46.80;27.58;;;-1.30;99.90;;;;;;5102864;28;20101;-87
2021/12/11 00:33:30;;;;;;;47.92;26.08;;;-1.30;99.90;;;;;;5070998;28;20048;-88
2021/12/11 00:35:56;;;;;;;39.35;24.52;;;-1.30;99.90;;;;;;5099657;28;20094;-87
2021/12/11 00:38:34;;;;;;;41.53;27.30;;;-1.30;99.90;;;;;;5078371;28;20052;-88
2021/12/11 00:41:03;;;;;;;38.65;25.05;;;-1.30;99.90;;;;;;5094508;28;20056;-87
2021/12/11 00:43:34;;;;;;;38.30;24.10;;;-1.30;99.90;;;;;;5057177;28;20165;-88
2021/12/11 00:46:01;;;;;;;40.20;25.67;;;-1.30;99.90;;;;;;5075591;28;20391;-88
2021/12/11 00:48:30;;;;;;;34.60;23.35;;;-1.40;99.90;;;;;;5056332;28;20048;-87
2021/12/11 00:51:01;;;;;;;27.70;18.10;;;-1.40;99.90;;;;;;5082219;28;20046;-88
2021/12/11 00:53:48;;;;;;;33.78;22.98;;;-1.50;99.90;;;;;;5065791;28;20052;-88
2021/12/11 00:56:19;;;;;;;36.58;23.05;;;-1.50;99.90;;;;;;5079639;28;20036;-78
2021/12/11 00:58:49;;;;;;;33.97;21.63;;;-1.60;99.90;;;;;;5083844;28;20055;-88
2021/12/11 01:01:17;;;;;;;;;;;-1.50;99.90;;;;;;5091180;28;20047;-85
2021/12/11 01:04:08;;;;;;;36.25;21.55;;;-1.50;99.90;;;;;;5073911;28;19916;-79
2021/12/11 01:06:40;;;;;;;36.15;24.35;;;-1.50;99.90;;;;;;5072399;28;20067;-87
2021/12/11 01:09:11;;;;;;;43.55;26.75;;;-1.60;99.90;;;;;;5081896;28;20484;-86
2021/12/11 01:11:43;;;;;;;43.38;24.83;;;-1.60;99.90;;;;;;5060957;28;20048;-87
2021/12/11 01:14:20;;;;;;;33.53;21.48;;;-1.70;99.90;;;;;;5081993;28;20062;-88
2021/12/11 01:16:56;;;;;;;31.92;20.27;;;-1.80;99.90;;;;;;5109778;28;20036;-73
2021/12/11 01:19:22;;;;;;;28.58;21.27;;;-1.70;99.90;;;;;;5101201;28;20095;-87
2021/12/11 01:22:00;;;;;;;33.30;22.27;;;-1.80;99.90;;;;;;5084982;28;20406;-88
2021/12/11 01:24:44;;;;;;;28.10;19.17;;;-1.90;99.90;;;;;;5062810;28;20028;-88
2021/12/11 01:27:23;;;;;;;28.73;19.80;;;-1.90;99.90;;;;;;5087997;28;20075;-87
2021/12/11 01:29:55;;;;;;;36.25;21.58;;;-1.70;99.90;;;;;;5091586;28;20078;-89
2021/12/11 01:32:21;;;;;;;34.28;19.70;;;-1.70;99.90;;;;;;5087260;28;20051;-89
2021/12/11 01:34:47;;;;;;;29.77;19.85;;;-1.70;99.90;;;;;;5067926;28;20043;-87
2021/12/11 01:37:15;;;;;;;31.67;19.85;;;-1.60;99.90;;;;;;5055687;28;20040;-76
2021/12/11 01:39:41;;;;;;;32.95;19.15;;;-1.70;99.90;;;;;;5078145;28;20038;-86
2021/12/11 01:42:26;;;;;;;38.85;20.52;;;-1.70;99.90;;;;;;5059971;28;20040;-87
2021/12/11 01:44:55;;;;;;;28.08;20.05;;;-1.70;99.90;;;;;;5059934;28;20055;-86
2021/12/11 01:47:31;;;;;;;29.23;18.27;;;-1.60;99.90;;;;;;5052220;28;20659;-87
2021/12/11 01:50:06;;;;;;;31.05;17.60;;;-1.60;99.90;;;;;;5082025;28;20458;-86
2021/12/11 01:52:40;;;;;;;25.58;16.40;;;-1.70;99.90;;;;;;5081113;28;20036;-85
2021/12/11 01:55:20;;;;;;;32.22;14.38;;;-1.70;99.90;;;;;;5061752;28;20118;-87
2021/12/11 01:57:52;;;;;;;25.67;15.43;;;-1.70;99.90;;;;;;5076027;28;20036;-87
2021/12/11 02:00:33;;;;;;;22.73;16.15;;;-1.60;99.90;;;;;;5089403;28;20133;-88
2021/12/11 02:03:03;;;;;;;19.38;13.60;;;-1.60;99.90;;;;;;5088371;28;20045;-86
2021/12/11 02:05:33;;;;;;;23.33;14.75;;;-1.60;99.90;;;;;;5082419;28;20048;-87
2021/12/11 02:08:08;;;;;;;28.48;16.58;;;-1.60;99.90;;;;;;5071835;28;20055;-87
2021/12/11 02:10:44;;;;;;;26.65;14.45;;;-1.70;99.90;;;;;;5085064;28;20051;-87
2021/12/11 02:13:15;;;;;;;20.25;13.73;;;-1.70;99.90;;;;;;5070055;28;20059;-87
2021/12/11 02:15:48;;;;;;;20.10;14.20;;;-1.70;99.90;;;;;;5073768;28;20048;-85
2021/12/11 02:18:20;;;;;;;21.67;13.75;;;-1.80;99.90;;;;;;5069506;28;20060;-80
2021/12/11 02:20:57;;;;;;;21.20;12.48;;;-1.80;99.90;;;;;;5090625;28;20103;-85
2021/12/11 02:23:24;;;;;;;18.70;13.82;;;-1.80;99.90;;;;;;5088011;28;20041;-87
2021/12/11 02:25:53;;;;;;;21.70;12.88;;;-1.90;99.90;;;;;;5073588;28;20056;-86
2021/12/11 02:28:27;;;;;;;22.27;13.63;;;-1.70;99.90;;;;;;5080888;28;20044;-86
2021/12/11 02:31:05;;;;;;;21.50;13.75;;;-1.80;99.90;;;;;;5078590;28;20062;-87
2021/12/11 02:33:34;;;;;;;19.73;13.85;;;-1.80;99.90;;;;;;5090813;28;20056;-87
2021/12/11 02:36:10;;;;;;;21.65;12.38;;;-1.70;99.90;;;;;;5066444;28;20561;-86
2021/12/11 02:39:00;;;;;;;23.38;14.02;;;-1.70;99.90;;;;;;5098564;28;20075;-85
2021/12/11 02:41:31;;;;;;;22.27;13.65;;;-1.90;99.90;;;;;;5090430;28;20032;-87
2021/12/11 02:44:04;;;;;;;19.83;14.00;;;-1.90;99.90;;;;;;5056164;28;20052;-87
2021/12/11 02:46:53;;;;;;;20.30;12.70;;;-1.90;99.90;;;;;;5086771;28;20048;-85
2021/12/11 02:49:29;;;;;;;23.70;14.60;;;-1.90;99.90;;;;;;5077055;28;20402;-86
2021/12/11 02:52:26;;;;;;;21.27;13.63;;;-1.90;99.90;;;;;;5071375;28;20301;-87
2021/12/11 02:55:04;;;;;;;21.42;13.10;;;-1.90;99.90;;;;;;5055545;28;20045;-86
2021/12/11 02:57:34;;;;;;;23.80;13.95;;;-1.90;99.90;;;;;;5065072;28;20494;-86
2021/12/11 03:00:21;;;;;;;23.73;14.40;;;-1.90;99.90;;;;;;5076996;28;20048;-86
2021/12/11 03:02:51;;;;;;;21.58;14.07;;;-1.90;99.90;;;;;;5078089;28;20040;-87
2021/12/11 03:05:23;;;;;;;22.25;15.30;;;-1.90;99.90;;;;;;5080145;28;20040;-87
2021/12/11 03:07:52;;;;;;;26.02;14.20;;;-1.70;99.90;;;;;;5079652;28;20039;-86
2021/12/11 03:10:24;;;;;;;24.50;12.88;;;-1.90;99.90;;;;;;5087953;28;20098;-87
2021/12/11 03:12:52;;;;;;;24.90;14.82;;;-1.80;99.90;;;;;;5083427;28;20425;-86
2021/12/11 03:15:18;;;;;;;25.42;15.52;;;-2.00;99.90;;;;;;5071763;28;20071;-85
2021/12/11 03:17:44;;;;;;;25.38;14.50;;;-1.90;99.90;;;;;;5090151;28;20482;-84
2021/12/11 03:20:13;;;;;;;23.73;14.02;;;-1.90;99.90;;;;;;5088934;28;20146;-87
2021/12/11 03:22:42;;;;;;;23.65;15.05;;;-2.00;99.90;;;;;;5067155;28;20049;-86
2021/12/11 03:25:11;;;;;;;29.38;17.23;;;-2.00;99.90;;;;;;5059065;28;20041;-86
2021/12/11 03:27:37;;;;;;;24.95;15.30;;;-1.90;99.90;;;;;;5083309;28;20040;-86
2021/12/11 03:30:06;;;;;;;25.55;15.50;;;-1.80;99.90;;;;;;5061772;28;20063;-86
2021/12/11 03:32:32;;;;;;;25.63;14.80;;;-1.80;99.90;;;;;;5077841;28;20552;-86
2021/12/11 03:34:58;;;;;;;26.90;15.65;;;-2.00;99.90;;;;;;5087284;28;20543;-85
2021/12/11 03:37:24;;;;;;;28.08;16.65;;;-2.00;99.90;;;;;;5071591;28;20067;-86
2021/12/11 03:39:54;;;;;;;24.75;14.55;;;-1.90;99.90;;;;;;5079218;28;20041;-85
2021/12/11 03:42:30;;;;;;;23.92;14.65;;;-1.90;99.90;;;;;;5072949;28;20048;-85
2021/12/11 03:44:57;;;;;;;24.10;14.93;;;-2.00;99.90;;;;;;5084859;28;20082;-86
2021/12/11 03:47:27;;;;;;;21.52;15.38;;;-2.00;99.90;;;;;;5080327;28;20590;-87
2021/12/11 03:49:52;;;;;;;25.67;13.77;;;-2.10;99.90;;;;;;5090883;28;20081;-85
2021/12/11 03:52:19;;;;;;;22.00;14.23;;;-2.20;99.90;;;;;;5082731;28;20041;-87
2021/12/11 03:54:47;;;;;;;25.40;14.57;;;-2.30;99.90;;;;;;5083682;28;20082;-87
2021/12/11 03:57:16;;;;;;;24.92;15.18;;;-2.20;99.90;;;;;;5053540;28;20044;-75
2021/12/11 03:59:48;;;;;;;25.57;16.80;;;-2.20;99.90;;;;;;5084757;28;20040;-83
2021/12/11 04:02:18;;;;;;;24.38;16.17;;;-2.00;99.90;;;;;;5088569;28;20317;-76
2021/12/11 04:04:48;;;;;;;28.92;16.52;;;-2.10;99.90;;;;;;5089275;28;20044;-86
2021/12/11 04:07:19;;;;;;;27.42;16.77;;;-2.10;99.90;;;;;;5085066;28;20793;-79
2021/12/11 04:09:46;;;;;;;26.85;14.85;;;-2.10;99.90;;;;;;5074571;28;20375;-86
2021/12/11 04:12:13;;;;;;;28.35;16.75;;;-2.00;99.90;;;;;;5084318;28;20051;-87
2021/12/11 04:14:42;;;;;;;33.90;17.17;;;-2.00;99.90;;;;;;5084899;28;20048;-87
2021/12/11 04:17:10;;;;;;;30.92;16.85;;;-2.10;99.90;;;;;;5106636;28;20074;-86
2021/12/11 04:19:37;;;;;;;26.05;16.33;;;-2.00;99.90;;;;;;5081565;28;20489;-86
2021/12/11 04:22:04;;;;;;;29.38;17.80;;;-2.10;99.90;;;;;;5083163;28;20098;-85
2021/12/11 04:24:33;;;;;;;27.55;18.17;;;-2.10;99.90;;;;;;5090444;28;20115;-87
2021/12/11 04:27:04;;;;;;;27.73;18.30;;;-2.10;99.90;;;;;;5060461;28;20036;-87
2021/12/11 04:29:30;;;;;;;36.95;18.75;;;-2.00;99.90;;;;;;5066723;28;20036;-86
2021/12/11 04:32:00;;;;;;;31.77;19.05;;;-1.90;99.90;;;;;;5059354;28;20173;-86
2021/12/11 04:34:26;;;;;;;38.20;21.48;;;-1.90;99.90;;;;;;5077416;28;20670;-86
2021/12/11 04:37:01;;;;;;;36.90;21.38;;;-1.80;99.90;;;;;;5084223;28;20131;-88
2021/12/11 04:39:34;;;;;;;35.30;23.90;;;-1.90;99.90;;;;;;5086392;28;20033;-85
2021/12/11 04:42:09;;;;;;;40.63;20.52;;;-1.90;99.90;;;;;;5088020;28;20073;-87
2021/12/11 04:44:41;;;;;;;32.65;18.88;;;-1.80;99.90;;;;;;5080070;28;20036;-86
2021/12/11 04:47:13;;;;;;;28.60;17.77;;;-1.90;99.90;;;;;;5084705;28;20548;-88
2021/12/11 04:49:47;;;;;;;29.67;18.45;;;-2.00;99.90;;;;;;5084455;28;20051;-85
2021/12/11 04:52:32;;;;;;;23.40;15.32;;;-2.20;99.90;;;;;;5063943;28;20057;-76
2021/12/11 05:10:54;;;;;;;25.70;15.95;;;-2.50;99.90;;;;;;5070659;28;20052;-86
2021/12/11 05:13:21;;;;;;;29.85;16.98;;;-2.40;99.90;;;;;;5083015;28;20052;-86
2021/12/11 05:15:49;;;;;;;30.42;18.45;;;-2.40;99.90;;;;;;5091236;28;20070;-86
2021/12/11 05:18:19;;;;;;;30.75;16.63;;;-2.30;99.90;;;;;;5078108;28;20036;-84
2021/12/11 05:20:47;;;;;;;34.85;19.25;;;-2.30;99.90;;;;;;5087232;28;20101;-85
2021/12/11 05:23:13;;;;;;;29.95;18.45;;;-2.50;99.90;;;;;;5064996;28;20045;-76
2021/12/11 05:25:39;;;;;;;24.38;16.50;;;-2.30;99.90;;;;;;5084167;28;20398;-87
2021/12/11 05:28:05;;;;;;;23.27;14.15;;;-2.30;99.90;;;;;;5061209;28;20044;-86
2021/12/11 05:30:35;;;;;;;25.77;15.00;;;-2.40;99.90;;;;;;5086667;28;20551;-85
2021/12/11 05:33:01;;;;;;;26.20;14.85;;;-2.50;99.90;;;;;;5087790;28;20040;-85
2021/12/11 05:35:29;;;;;;;25.17;15.80;;;-2.50;99.90;;;;;;5059316;28;20079;-85
2021/12/11 05:37:55;;;;;;;30.98;16.60;;;-2.60;99.90;;;;;;5066042;28;20045;-86
2021/12/11 05:40:23;;;;;;;35.97;15.93;;;-2.50;99.90;;;;;;5074194;28;20123;-87
2021/12/11 05:42:49;;;;;;;27.50;15.77;;;-2.40;99.90;;;;;;5070836;28;20379;-88
2021/12/11 05:45:16;;;;;;;31.20;16.40;;;-2.50;99.90;;;;;;5080029;28;20036;-87
2021/12/11 05:47:43;;;;;;;23.48;14.15;;;-2.50;99.90;;;;;;5063750;28;20153;-85
2021/12/11 05:50:13;;;;;;;29.45;17.75;;;-2.40;99.90;;;;;;5088443;28;20148;-85
2021/12/11 05:52:39;;;;;;;26.13;14.93;;;-2.70;99.90;;;;;;5085541;28;20044;-88
2021/12/11 05:55:08;;;;;;;28.40;16.30;;;-2.60;99.90;;;;;;5078347;28;20041;-88
2021/12/11 05:57:36;;;;;;;23.65;15.95;;;-2.80;99.90;;;;;;5069419;28;20573;-89
2021/12/11 06:00:05;;;;;;;26.65;16.98;;;-2.60;99.90;;;;;;5073889;28;20052;-84
2021/12/11 06:02:31;;;;;;;28.63;16.13;;;-2.70;99.90;;;;;;5065228;28;20040;-89
2021/12/11 06:04:59;;;;;;;26.00;16.80;;;-2.60;99.90;;;;;;5088921;28;20044;-88
2021/12/11 06:07:28;;;;;;;25.88;16.08;;;-2.40;99.90;;;;;;5080991;28;20118;-87
2021/12/11 06:09:59;;;;;;;29.98;17.60;;;-2.60;99.90;;;;;;5085540;28;20052;-80
2021/12/11 06:12:25;;;;;;;32.75;18.35;;;-2.50;99.90;;;;;;5081868;28;20044;-88
2021/12/11 06:14:51;;;;;;;28.58;17.52;;;-2.40;99.90;;;;;;5075114;28;20076;-88
2021/12/11 06:17:21;;;;;;;28.52;16.73;;;-2.50;99.90;;;;;;5086780;28;20040;-88
2021/12/11 06:19:52;;;;;;;;;;;-2.50;99.90;;;;;;5091552;28;20032;-90
2021/12/11 06:22:21;;;;;;;38.90;18.25;;;-2.40;99.90;;;;;;5078148;28;20007;-88
2021/12/11 06:24:47;;;;;;;29.50;19.07;;;-2.50;99.90;;;;;;5094032;28;20040;-88
2021/12/11 06:27:13;;;;;;;26.17;16.67;;;-2.40;99.90;;;;;;5068271;28;20378;-77
2021/12/11 06:29:39;;;;;;;31.27;18.38;;;-2.40;99.90;;;;;;5077485;28;20055;-87
2021/12/11 06:32:06;;;;;;;27.92;17.90;;;-2.50;99.90;;;;;;5088447;28;20028;-85
2021/12/11 06:34:34;;;;;;;27.27;16.13;;;-2.40;99.90;;;;;;5069170;28;20079;-88
2021/12/11 06:37:01;;;;;;;29.27;16.05;;;-2.50;99.90;;;;;;5083253;28;20089;-88
2021/12/11 06:39:26;;;;;;;33.45;18.77;;;-2.50;99.90;;;;;;5062101;28;20494;-90
2021/12/11 06:42:00;;;;;;;28.35;18.27;;;-2.50;99.90;;;;;;5065628;28;20509;-87
2021/12/11 06:44:27;;;;;;;29.38;18.08;;;-2.60;99.90;;;;;;5090005;28;20112;-85
2021/12/11 06:46:55;;;;;;;30.40;17.60;;;-2.50;99.90;;;;;;5087294;28;20044;-90
2021/12/11 06:49:22;;;;;;;28.60;19.23;;;-2.50;99.90;;;;;;5096797;28;20035;-86
2021/12/11 06:51:48;;;;;;;26.15;16.42;;;-2.50;99.90;;;;;;5097082;28;20044;-87
2021/12/11 06:54:14;;;;;;;31.67;19.38;;;-2.50;99.90;;;;;;5094691;28;20063;-78
2021/12/11 06:56:41;;;;;;;30.30;17.75;;;-2.60;99.90;;;;;;5089082;28;20054;-87
2021/12/11 06:59:07;;;;;;;28.00;17.17;;;-2.50;99.90;;;;;;5057845;28;20044;-87
2021/12/11 07:01:33;;;;;;;30.15;17.80;;;-2.60;99.90;;;;;;5097364;28;20047;-89
2021/12/11 07:03:59;;;;;;;30.90;17.10;;;-2.60;99.90;;;;;;5101019;28;20075;-87
2021/12/11 07:06:26;;;;;;;30.63;19.58;;;-2.60;99.90;;;;;;5062043;28;20070;-87
2021/12/11 07:08:53;;;;;;;36.83;22.08;;;-2.50;99.90;;;;;;5100255;28;20134;-88
2021/12/11 07:11:21;;;;;;;34.78;18.30;;;-2.60;99.90;;;;;;5100626;28;20058;-87
2021/12/11 07:13:47;;;;;;;34.75;19.55;;;-2.60;99.90;;;;;;5080233;28;20049;-87
2021/12/11 07:16:13;;;;;;;33.63;20.30;;;-2.60;99.90;;;;;;5082131;28;20402;-76
2021/12/11 07:18:39;;;;;;;31.45;17.85;;;-2.50;99.90;;;;;;5087338;28;20044;-86
2021/12/11 07:21:06;;;;;;;31.27;18.83;;;-2.60;99.90;;;;;;5070575;28;20033;-86
2021/12/11 07:23:33;;;;;;;26.17;16.98;;;-2.60;99.90;;;;;;5063952;28;20047;-88
2021/12/11 07:26:13;;;;;;;28.05;17.88;;;-2.50;99.90;;;;;;5070193;28;20032;-88
2021/12/11 07:28:40;;;;;;;39.30;21.58;;;-2.50;99.90;;;;;;5066766;28;20793;-86
2021/12/11 07:31:06;;;;;;;35.97;21.35;;;-2.60;99.90;;;;;;5071671;28;20037;-88
2021/12/11 07:33:32;;;;;;;34.85;21.48;;;-2.60;99.90;;;;;;5054738;28;20332;-87
2021/12/11 07:35:58;;;;;;;43.17;22.98;;;-2.60;99.90;;;;;;5063547;28;20032;-87
2021/12/11 07:38:24;;;;;;;37.47;21.95;;;-2.40;99.90;;;;;;5052556;28;20553;-88
2021/12/11 07:40:54;;;;;;;38.15;22.05;;;-2.50;99.90;;;;;;5059952;28;20107;-86
2021/12/11 07:43:21;;;;;;;39.95;22.15;;;-2.50;99.90;;;;;;5065274;28;20095;-89
2021/12/11 07:45:47;;;;;;;34.95;21.10;;;-2.40;99.90;;;;;;5071082;28;20048;-86
2021/12/11 07:48:14;;;;;;;39.63;24.20;;;-2.30;99.90;;;;;;5063266;28;20169;-85
2021/12/11 07:50:41;;;;;;;38.95;23.45;;;-2.30;99.90;;;;;;5063247;28;20158;-87
2021/12/11 07:53:07;;;;;;;36.58;22.70;;;-2.10;99.90;;;;;;5062595;28;20040;-83
2021/12/11 07:55:32;;;;;;;42.55;26.45;;;-2.20;99.90;;;;;;5050918;28;20053;-87
2021/12/11 07:58:00;;;;;;;35.80;22.38;;;-2.20;99.90;;;;;;5065287;28;20045;-88
2021/12/11 08:00:28;;;;;;;30.63;21.60;;;-2.10;99.90;;;;;;5063288;28;20063;-85
2021/12/11 08:02:54;;;;;;;38.47;21.40;;;-2.10;99.90;;;;;;5059850;28;20094;-78
2021/12/11 08:05:22;;;;;;;37.38;22.02;;;-2.10;99.90;;;;;;5051603;28;20041;-87
2021/12/11 08:07:47;;;;;;;35.50;23.50;;;-2.10;99.90;;;;;;5052202;28;20135;-82
2021/12/11 08:10:17;;;;;;;40.17;25.10;;;-2.10;99.90;;;;;;5049207;28;20550;-82
2021/12/11 08:12:44;;;;;;;;;;;-2.20;99.90;;;;;;5056862;28;20508;-82
2021/12/11 08:15:12;;;;;;;39.00;22.67;;;-2.10;99.90;;;;;;5082095;28;20386;-83
2021/12/11 08:17:38;;;;;;;40.55;24.83;;;-2.10;99.90;;;;;;5086400;28;20052;-84
2021/12/11 08:20:07;;;;;;;48.40;28.73;;;-2.00;99.90;;;;;;5094926;28;20052;-86
2021/12/11 08:22:33;;;;;;;47.30;29.13;;;-2.00;99.90;;;;;;5091702;28;20036;-90
2021/12/11 08:24:59;;;;;;;50.05;30.27;;;-1.90;99.90;;;;;;5073886;28;20040;-82
2021/12/11 08:27:26;;;;;;;46.92;28.40;;;-1.80;99.90;;;;;;5082977;28;20513;-85
2021/12/11 08:29:52;;;;;;;40.53;24.35;;;-1.80;99.90;;;;;;5090925;28;20119;-86
2021/12/11 08:32:19;;;;;;;41.10;26.02;;;-1.80;99.90;;;;;;5072412;28;20032;-85
2021/12/11 08:34:46;;;;;;;38.53;24.08;;;-1.70;99.90;;;;;;5090386;28;20477;-82
2021/12/11 08:37:14;;;;;;;39.55;25.38;;;-1.80;99.90;;;;;;5067822;28;20055;-82
2021/12/11 08:39:42;;;;;;;38.10;22.50;;;-1.60;99.90;;;;;;5075831;28;20044;-85
2021/12/11 08:42:11;;;;;;;42.42;25.70;;;-1.60;99.90;;;;;;5064754;28;20079;-85
2021/12/11 08:44:38;;;;;;;;;;;-1.50;99.90;;;;;;5093650;28;20048;-85
2021/12/11 08:47:09;;;;;;;38.08;22.33;;;-1.50;99.90;;;;;;5089070;28;19920;-85
2021/12/11 08:49:37;;;;;;;50.45;27.65;;;-1.60;99.90;;;;;;5072985;28;20047;-85
2021/12/11 08:52:06;;;;;;;42.63;25.77;;;-1.50;99.90;;;;;;5092044;28;20513;-85
2021/12/11 08:54:32;;;;;;;56.42;30.20;;;-1.30;99.90;;;;;;5091353;28;20051;-84
2021/12/11 08:57:00;;;;;;;57.10;30.80;;;-1.50;99.90;;;;;;5047445;28;20059;-86
2021/12/11 08:59:28;;;;;;;86.07;30.88;;;-1.40;99.90;;;;;;5075847;28;20035;-84
2021/12/11 09:02:09;;;;;;;122.45;31.30;;;-1.30;99.90;;;;;;5090281;28;20052;-81
2021/12/11 09:05:01;;;;;;;99.50;30.85;;;-1.40;99.90;;;;;;5068212;28;20045;-85
2021/12/11 09:07:39;;;;;;;166.52;37.15;;;-1.30;99.90;;;;;;5080984;28;20074;-87
2021/12/11 09:10:07;;;;;;;197.98;40.55;;;-1.10;99.90;;;;;;5056742;28;20078;-86
2021/12/11 09:12:41;;;;;;;100.88;35.10;;;-1.20;99.90;;;;;;5058961;28;20048;-84
2021/12/11 09:15:12;;;;;;;146.38;34.97;;;-1.10;99.90;;;;;;5095025;28;20052;-84
2021/12/11 09:17:51;;;;;;;127.47;33.92;;;-1.10;99.90;;;;;;5074718;28;20044;-87
2021/12/11 09:20:37;;;;;;;149.70;35.73;;;-1.00;99.90;;;;;;5091252;28;20044;-85
2021/12/11 09:23:27;;;;;;;150.50;35.92;;;-0.90;99.90;;;;;;5067943;28;20055;-83
2021/12/11 09:26:06;;;;;;;116.85;33.67;;;-0.90;99.90;;;;;;5085375;28;20048;-82
2021/12/11 09:28:46;;;;;;;109.60;32.40;;;-1.00;99.90;;;;;;5080073;28;20143;-83
2021/12/11 09:31:18;;;;;;;211.93;36.38;;;-0.90;99.90;;;;;;5071502;28;20314;-81
2021/12/11 09:33:53;;;;;;;119.07;33.83;;;-0.80;99.90;;;;;;5093938;28;20097;-84
2021/12/11 09:36:35;;;;;;;174.93;33.53;;;-0.90;99.90;;;;;;5073125;28;20092;-83
2021/12/11 09:39:18;;;;;;;200.30;34.53;;;-0.90;99.90;;;;;;5067640;28;20102;-79
2021/12/11 09:41:44;;;;;;;121.45;32.80;;;-0.60;99.90;;;;;;5069235;28;20127;-85
2021/12/11 09:44:16;;;;;;;233.40;41.63;;;-0.80;99.90;;;;;;5085907;28;20142;-86
2021/12/11 09:46:51;;;;;;;204.65;37.75;;;-0.70;99.90;;;;;;5083615;28;20047;-85
2021/12/11 09:49:21;;;;;;;219.25;42.45;;;-0.70;99.90;;;;;;5089795;28;20497;-80
2021/12/11 09:51:51;;;;;;;159.45;35.97;;;-0.80;99.90;;;;;;5088381;28;20513;-85
2021/12/11 09:54:23;;;;;;;159.48;35.92;;;-0.60;99.90;;;;;;5086347;28;20442;-84
2021/12/11 09:57:04;;;;;;;150.35;38.70;;;-0.60;99.90;;;;;;5098948;28;20451;-85
2021/12/11 09:59:31;;;;;;;118.55;34.28;;;-0.70;99.90;;;;;;5061113;28;20066;-84
2021/12/11 10:02:02;;;;;;;102.93;32.90;;;-0.60;99.90;;;;;;5081636;28;20036;-84
2021/12/11 10:04:39;;;;;;;92.22;32.65;;;-0.50;99.90;;;;;;5103235;28;20490;-76
2021/12/11 10:07:30;;;;;;;159.23;36.20;;;-0.50;99.90;;;;;;5083209;28;20126;-87
2021/12/11 10:10:23;;;;;;;128.82;31.80;;;-0.50;99.90;;;;;;5075868;28;20068;-84
2021/12/11 10:12:53;;;;;;;86.63;28.05;;;-0.40;99.90;;;;;;5093550;28;20044;-83
2021/12/11 10:15:26;;;;;;;152.40;35.13;;;-0.40;99.90;;;;;;5096385;28;20062;-82
2021/12/11 10:17:57;;;;;;;176.40;33.85;;;-0.40;99.90;;;;;;5099809;28;20136;-84
2021/12/11 10:20:29;;;;;;;82.57;28.80;;;-0.40;99.90;;;;;;5072555;28;20131;-84
2021/12/11 10:22:58;;;;;;;73.28;28.83;;;-0.30;99.90;;;;;;5100427;28;20039;-83
2021/12/11 10:25:30;;;;;;;81.53;28.83;;;-0.10;99.90;;;;;;5100976;28;20059;-84
2021/12/11 10:28:02;;;;;;;44.17;25.60;;;-0.20;99.90;;;;;;5097153;28;20052;-85
2021/12/11 10:30:30;;;;;;;53.15;29.80;;;0.00;99.90;;;;;;5074829;28;20055;-85
2021/12/11 10:32:56;;;;;;;57.83;30.25;;;0.20;99.90;;;;;;5094097;28;20038;-83
2021/12/11 10:35:26;;;;;;;52.28;25.25;;;0.00;99.90;;;;;;5088404;28;20078;-84
2021/12/11 10:37:52;;;;;;;68.10;28.90;;;0.00;99.90;;;;;;5082618;28;20051;-84
2021/12/11 10:40:29;;;;;;;80.68;27.25;;;0.10;99.90;;;;;;5068153;28;20039;-80
2021/12/11 10:43:09;;;;;;;83.15;27.42;;;0.10;99.90;;;;;;5084481;28;20051;-83
2021/12/11 10:45:35;;;;;;;83.47;25.80;;;0.00;99.90;;;;;;5056063;28;20109;-80
2021/12/11 10:48:06;;;;;;;54.55;23.42;;;0.00;99.90;;;;;;5093925;28;20039;-83
2021/12/11 10:50:40;;;;;;;48.00;25.17;;;0.00;99.90;;;;;;5070339;28;20494;-82
2021/12/11 10:53:09;;;;;;;50.95;24.50;;;0.20;99.90;;;;;;5079114;28;20126;-84
2021/12/11 10:55:36;;;;;;;69.38;25.88;;;0.10;99.90;;;;;;5090904;28;20543;-83
2021/12/11 10:58:10;;;;;;;46.10;24.00;;;0.20;99.90;;;;;;5110598;28;20126;-77
2021/12/11 11:00:43;;;;;;;62.47;26.25;;;0.30;99.90;;;;;;5080099;28;20119;-85
2021/12/11 11:03:10;;;;;;;85.43;27.95;;;0.20;99.90;;;;;;5070970;28;20048;-83
2021/12/11 11:05:36;;;;;;;62.67;25.98;;;0.30;99.90;;;;;;5096171;28;20051;-81
2021/12/11 11:08:06;;;;;;;59.30;27.33;;;0.40;99.90;;;;;;5085556;28;20040;-81
2021/12/11 11:10:37;;;;;;;53.08;23.98;;;0.40;99.90;;;;;;5091006;28;20059;-86
2021/12/11 11:13:08;;;;;;;48.63;24.52;;;0.60;99.90;;;;;;5103724;28;20063;-84
2021/12/11 11:15:35;;;;;;;47.47;25.00;;;0.70;99.90;;;;;;5069716;28;21004;-86
2021/12/11 11:18:01;;;;;;;42.08;23.38;;;0.60;99.90;;;;;;5089404;28;20151;-87
2021/12/11 11:20:41;;;;;;;45.50;24.35;;;0.40;99.90;;;;;;5082453;28;20032;-87
2021/12/11 11:23:07;;;;;;;39.78;23.88;;;0.60;99.90;;;;;;5097078;28;20037;-86
2021/12/11 11:25:39;;;;;;;37.58;25.65;;;0.50;99.90;;;;;;5086538;28;20446;-87
2021/12/11 11:28:11;;;;;;;37.33;23.27;;;0.70;99.90;;;;;;5106457;28;20044;-84
2021/12/11 11:30:42;;;;;;;35.50;21.75;;;0.70;99.90;;;;;;5063410;28;20044;-84
2021/12/11 11:33:08;;;;;;;33.38;22.85;;;0.90;99.90;;;;;;5059492;28;20047;-83
2021/12/11 11:35:38;;;;;;;34.95;24.02;;;0.90;99.90;;;;;;5082971;28;20547;-84
2021/12/11 11:38:05;;;;;;;35.78;23.60;;;0.90;99.90;;;;;;5092972;28;20134;-87
2021/12/11 11:40:36;;;;;;;40.13;23.50;;;0.90;99.90;;;;;;5068863;28;20044;-83
2021/12/11 11:43:05;;;;;;;35.75;23.88;;;1.10;99.90;;;;;;5046471;28;20048;-84
2021/12/11 11:45:31;;;;;;;41.58;25.75;;;1.10;99.90;;;;;;5073182;28;20036;-84
2021/12/11 11:47:57;;;;;;;36.33;24.15;;;1.00;99.90;;;;;;5088198;28;20139;-85
2021/12/11 11:50:29;;;;;;;45.60;26.30;;;1.10;99.90;;;;;;5087306;28;20126;-84
2021/12/11 11:52:55;;;;;;;43.22;24.73;;;1.00;99.90;;;;;;5088793;28;20040;-83
2021/12/11 11:55:30;;;;;;;44.58;25.70;;;1.20;99.90;;;;;;5071298;28;20127;-85
2021/12/11 11:57:58;;;;;;;45.83;24.50;;;1.10;99.90;;;;;;5065949;28;20040;-86
2021/12/11 12:00:29;;;;;;;50.00;27.13;;;1.40;99.90;;;;;;5086275;28;20477;-83
2021/12/11 12:02:56;;;;;;;43.08;25.27;;;1.30;99.90;;;;;;5078266;28;20062;-83
2021/12/11 12:05:22;;;;;;;41.30;25.40;;;1.30;99.90;;;;;;5083239;28;20499;-82
2021/12/11 12:07:48;;;;;;;48.20;25.90;;;1.30;99.90;;;;;;5083849;28;20503;-81
2021/12/11 12:10:25;;;;;;;45.33;26.73;;;1.50;99.90;;;;;;5084623;28;20131;-82
2021/12/11 12:12:51;;;;;;;44.28;24.65;;;1.30;99.90;;;;;;5081832;28;20127;-81
2021/12/11 12:15:21;;;;;;;37.15;23.60;;;1.40;99.90;;;;;;5079760;28;20559;-81
2021/12/11 12:17:47;;;;;;;42.75;25.48;;;1.50;99.90;;;;;;5097174;28;20486;-80
2021/12/11 12:20:17;;;;;;;39.33;26.30;;;1.40;99.90;;;;;;5088041;28;20077;-79
2021/12/11 12:22:45;;;;;;;38.08;25.67;;;1.50;99.90;;;;;;5069769;28;20082;-77
2021/12/11 12:25:11;;;;;;;46.95;27.90;;;1.60;99.90;;;;;;5093720;28;20036;-84
2021/12/11 12:27:39;;;;;;;52.85;30.60;;;1.70;99.90;;;;;;5074832;28;20151;-79
2021/12/11 12:30:14;;;;;;;49.20;30.15;;;1.60;99.90;;;;;;5054893;28;20056;-80
2021/12/11 12:32:41;;;;;;;44.15;26.80;;;1.80;99.90;;;;;;5074014;28;20143;-83
2021/12/11 12:35:13;;;;;;;45.28;28.05;;;2.00;99.90;;;;;;5082129;28;20109;-84
2021/12/11 12:37:40;;;;;;;50.17;31.65;;;2.20;99.90;;;;;;5072789;28;20039;-83
2021/12/11 12:40:14;;;;;;;48.72;30.30;;;2.20;99.90;;;;;;5087679;28;20444;-81
2021/12/11 12:42:52;;;;;;;44.22;26.73;;;2.20;99.90;;;;;;5047759;28;20074;-81
2021/12/11 12:45:33;;;;;;;43.47;27.35;;;2.50;99.90;;;;;;5083297;28;20037;-81
2021/12/11 12:48:05;;;;;;;39.90;25.58;;;2.40;99.90;;;;;;5077087;28;20436;-80
2021/12/11 12:51:05;;;;;;;38.72;25.63;;;2.50;99.90;;;;;;5059565;28;20142;-72
2021/12/11 12:53:35;;;;;;;35.60;24.50;;;2.40;99.90;;;;;;5048325;28;20048;-81
2021/12/11 12:56:17;;;;;;;48.40;26.23;;;2.60;99.90;;;;;;5080984;28;20071;-79
2021/12/11 12:59:10;;;;;;;40.20;26.08;;;2.60;99.90;;;;;;5084268;28;20094;-74
2021/12/11 13:01:50;;;;;;;41.90;25.95;;;2.40;99.90;;;;;;5062485;28;20044;-79